Time;durP1;ratioP1;P1;durP2;ratioP2;P2;SDS_P1;SDS_P2;PMS_P1;PMS_P2;Temp;Humidity;BMP_temperature;BMP_pressure;BME280_temperature;BME280_humidity;BME280_pressure;Samples;Min_cycle;Max_cycle;Signal;HPM_P1;HPM_P2
2022/10/31 00:00:43;;;;;;;50.30;37.10;;;;;;;8.32;100.00;99327.79;106305;1285;64034;-78
2022/10/31 00:03:29;;;;;;;46.00;35.20;;;;;;;8.30;100.00;99327.39;106297;1284;58895;-78
2022/10/31 00:05:56;;;;;;;44.60;35.30;;;;;;;8.28;100.00;99327.30;106319;1288;59389;-78
2022/10/31 00:08:22;;;;;;;47.10;35.60;;;;;;;8.26;100.00;99325.09;106303;1285;66974;-78
2022/10/31 00:10:49;;;;;;;47.50;36.60;;;;;;;8.24;100.00;99324.14;106334;1285;60749;-78
2022/10/31 00:13:16;;;;;;;50.20;38.00;;;;;;;8.23;100.00;99326.33;106297;1278;65020;-77
2022/10/31 00:15:43;;;;;;;53.00;37.70;;;;;;;8.21;100.00;99328.36;106286;1285;58912;-77
2022/10/31 00:18:10;;;;;;;61.10;36.10;;;;;;;8.21;100.00;99325.92;106302;1284;59017;-78
2022/10/31 00:20:37;;;;;;;88.50;34.70;;;;;;;8.19;100.00;99327.09;106009;1292;67074;-78
2022/10/31 00:23:05;;;;;;;57.70;38.20;;;;;;;8.17;100.00;99324.00;106315;1277;61013;-77
2022/10/31 00:25:38;;;;;;;47.50;35.50;;;;;;;8.14;100.00;99325.71;106298;1285;64859;-79
2022/10/31 00:28:06;;;;;;;48.40;36.20;;;;;;;8.12;100.00;99324.06;106296;1278;59112;-78
2022/10/31 00:30:33;;;;;;;58.00;43.40;;;;;;;8.10;100.00;99326.09;106326;1284;59200;-78
2022/10/31 00:33:00;;;;;;;49.50;38.00;;;;;;;8.09;100.00;99328.45;106303;1285;66176;-78
2022/10/31 00:35:27;;;;;;;50.60;36.70;;;;;;;8.08;100.00;99325.33;106322;1285;61014;-77
2022/10/31 00:37:53;;;;;;;48.10;37.20;;;;;;;8.06;100.00;99331.08;106293;1285;63826;-77
2022/10/31 00:40:19;;;;;;;48.30;36.80;;;;;;;8.04;100.00;99330.67;106295;1285;58953;-78
2022/10/31 00:42:46;;;;;;;51.90;40.90;;;;;;;8.02;100.00;99330.92;106277;1278;58737;-78
2022/10/31 00:45:13;;;;;;;49.70;37.30;;;;;;;8.01;100.00;99333.65;106316;1284;65768;-78
2022/10/31 00:47:39;;;;;;;54.60;41.80;;;;;;;7.99;100.00;99331.98;106325;1271;60236;-77
2022/10/31 00:50:06;;;;;;;56.40;42.40;;;;;;;7.99;100.00;99331.13;106295;1291;65043;-78
2022/10/31 00:52:34;;;;;;;46.70;36.10;;;;;;;7.99;100.00;99330.21;105940;1285;58948;-78
2022/10/31 00:55:00;;;;;;;45.80;36.00;;;;;;;7.97;100.00;99328.73;106289;1284;58968;-77
2022/10/31 00:57:27;;;;;;;50.90;38.00;;;;;;;7.95;100.00;99328.49;106018;1291;64618;-78
2022/10/31 00:59:53;;;;;;;49.90;36.90;;;;;;;7.92;100.00;99331.79;106319;1285;60939;-78
2022/10/31 01:02:20;;;;;;;51.70;40.20;;;;;;;7.89;100.00;99333.67;106325;1286;65159;-78
2022/10/31 01:04:46;;;;;;;47.20;39.30;;;;;;;7.86;100.00;99332.62;106308;1286;58808;-78
2022/10/31 01:07:13;;;;;;;51.30;39.10;;;;;;;7.84;100.00;99335.91;106295;1278;58867;-78
2022/10/31 01:09:41;;;;;;;50.20;39.60;;;;;;;7.82;100.00;99338.14;106297;1287;64598;-78
2022/10/31 01:12:08;;;;;;;54.50;41.30;;;;;;;7.82;100.00;99336.00;106321;1285;60061;-78
2022/10/31 01:14:34;;;;;;;43.80;35.20;;;;;;;7.84;100.00;99334.69;106289;1286;65049;-77
2022/10/31 01:17:01;;;;;;;57.80;44.00;;;;;;;7.82;100.00;99334.59;106285;1285;58888;-78
2022/10/31 01:19:29;;;;;;;47.70;38.80;;;;;;;7.79;100.00;99333.34;105947;1291;59255;-77
2022/10/31 01:21:55;;;;;;;44.50;34.80;;;;;;;7.77;100.00;99332.54;106307;1286;67176;-78
2022/10/31 01:24:22;;;;;;;41.20;33.20;;;;;;;7.74;100.00;99331.30;106311;1285;61161;-77
2022/10/31 01:26:49;;;;;;;48.60;37.30;;;;;;;7.71;100.00;99328.98;106307;1285;65037;-78
2022/10/31 01:29:15;;;;;;;45.00;34.40;;;;;;;7.69;100.00;99330.48;106277;1285;58900;-79
2022/10/31 01:31:42;;;;;;;47.00;37.90;;;;;;;7.67;100.00;99336.04;106016;1291;58975;-78
2022/10/31 01:34:13;;;;;;;43.30;34.70;;;;;;;7.65;100.00;99337.90;105954;1291;67028;-77
2022/10/31 01:36:40;;;;;;;41.10;32.70;;;;;;;7.64;100.00;99336.17;106315;1286;59788;-77
2022/10/31 01:39:11;;;;;;;45.80;35.60;;;;;;;7.63;100.00;99332.20;106288;1285;65338;-77
2022/10/31 01:41:41;;;;;;;48.50;38.00;;;;;;;7.62;100.00;99329.91;106302;1285;59026;-77
2022/10/31 01:44:14;;;;;;;;;;;;;;;7.63;100.00;99330.05;106309;1286;59911;-77
2022/10/31 01:46:43;;;;;;;45.80;35.40;;;;;;;7.62;100.00;99329.02;106314;1288;65447;-78
2022/10/31 01:49:18;;;;;;;46.00;35.80;;;;;;;7.63;100.00;99328.11;106288;1285;60005;-78
2022/10/31 01:51:50;;;;;;;45.20;33.90;;;;;;;7.61;100.00;99328.73;106294;1285;64053;-77
2022/10/31 01:54:23;;;;;;;47.40;35.50;;;;;;;7.59;100.00;99331.13;106320;1285;58827;-78
2022/10/31 01:56:52;;;;;;;45.20;35.90;;;;;;;7.56;100.00;99333.95;106319;1285;58932;-77
2022/10/31 01:59:20;;;;;;;52.70;39.50;;;;;;;7.56;100.00;99333.27;106301;1285;67042;-78
2022/10/31 02:01:50;;;;;;;42.20;34.30;;;;;;;7.56;100.00;99337.48;106315;1285;60949;-77
2022/10/31 02:04:18;;;;;;;42.00;34.10;;;;;;;7.56;100.00;99336.08;106292;1288;65049;-78
2022/10/31 02:06:58;;;;;;;45.20;34.50;;;;;;;7.54;100.00;99335.29;106303;1293;59227;-78
2022/10/31 02:09:26;;;;;;;43.20;31.60;;;;;;;7.53;100.00;99332.34;106321;1286;58754;-78
2022/10/31 02:11:57;;;;;;;38.60;31.20;;;;;;;7.51;100.00;99330.34;106301;1285;67029;-77
2022/10/31 02:14:26;;;;;;;40.60;30.70;;;;;;;7.48;100.00;99330.11;106317;1285;61005;-78
2022/10/31 02:16:54;;;;;;;35.70;30.00;;;;;;;7.45;100.00;99328.11;106293;1286;64166;-78
2022/10/31 02:19:46;;;;;;;33.50;29.60;;;;;;;7.43;100.00;99333.84;106286;1282;58940;-78
2022/10/31 02:22:36;;;;;;;35.50;28.80;;;;;;;7.41;100.00;99338.23;105611;1294;58975;-78
2022/10/31 02:25:49;;;;;;;38.70;30.40;;;;;;;7.37;100.00;99333.44;105606;1294;67369;-77
2022/10/31 02:28:15;;;;;;;36.80;28.80;;;;;;;7.34;100.00;99333.45;105146;1300;60859;-78
2022/10/31 02:30:45;;;;;;;45.40;31.50;;;;;;;7.31;100.00;99330.75;105073;1303;65053;-77
2022/10/31 02:33:38;;;;;;;49.70;34.50;;;;;;;7.29;100.00;99335.09;105169;1303;58957;-78
2022/10/31 02:36:15;;;;;;;50.30;33.70;;;;;;;7.28;100.00;99333.55;105109;1299;58837;-78
2022/10/31 02:38:56;;;;;;;54.40;35.90;;;;;;;7.27;100.00;99336.26;105140;1301;66000;-77
2022/10/31 02:41:45;;;;;;;68.50;41.80;;;;;;;7.26;100.00;99339.98;105121;1301;59999;-77
2022/10/31 02:44:34;;;;;;;66.00;43.70;;;;;;;7.24;100.00;99339.36;105067;1298;65046;-78
2022/10/31 02:47:07;;;;;;;64.20;42.00;;;;;;;7.25;100.00;99340.77;105125;1303;59135;-77
2022/10/31 02:49:53;;;;;;;60.60;41.00;;;;;;;7.24;100.00;99342.02;105139;1298;59040;-78
2022/10/31 02:52:30;;;;;;;56.50;37.40;;;;;;;7.25;100.00;99342.52;105129;1301;65864;-77
2022/10/31 02:54:56;;;;;;;52.30;38.60;;;;;;;7.26;100.00;99345.48;105127;1308;61461;-76
2022/10/31 02:57:32;;;;;;;52.30;39.60;;;;;;;7.27;100.00;99352.83;105109;1306;65067;-78
2022/10/31 03:00:38;;;;;;;50.60;36.80;;;;;;;7.30;100.00;99352.55;105380;1294;59002;-77
2022/10/31 03:03:17;;;;;;;46.50;36.40;;;;;;;7.31;100.00;99355.16;106098;1291;59711;-76
2022/10/31 03:06:06;;;;;;;46.60;37.00;;;;;;;7.31;100.00;99356.73;106387;1284;66018;-77
2022/10/31 03:08:54;;;;;;;238.20;42.00;;;;;;;7.31;100.00;99358.33;106359;1284;60984;-77
2022/10/31 03:11:28;;;;;;;49.30;35.80;;;;;;;7.33;100.00;99360.52;106312;1278;64041;-79
2022/10/31 03:13:59;;;;;;;45.60;36.00;;;;;;;7.34;100.00;99362.05;106310;1283;58920;-77
2022/10/31 03:16:46;;;;;;;50.80;36.30;;;;;;;7.33;100.00;99363.49;106336;1285;58860;-77
2022/10/31 03:19:28;;;;;;;45.80;35.50;;;;;;;7.31;100.00;99362.22;106368;1282;65976;-77
2022/10/31 03:22:01;;;;;;;44.70;35.80;;;;;;;7.29;100.00;99364.27;106324;1286;59923;-77
2022/10/31 03:24:32;;;;;;;42.80;33.90;;;;;;;7.26;100.00;99361.77;106012;1287;64025;-77
2022/10/31 03:27:01;;;;;;;50.10;36.30;;;;;;;7.21;100.00;99364.44;106303;1286;58841;-77
2022/10/31 03:29:33;;;;;;;47.30;35.80;;;;;;;7.19;100.00;99361.19;106336;1285;59557;-78
2022/10/31 03:32:15;;;;;;;48.90;36.50;;;;;;;7.19;100.00;99360.10;106146;1289;66986;-76
2022/10/31 03:34:44;;;;;;;48.20;36.70;;;;;;;7.20;100.00;99361.32;106324;1286;61111;-77
2022/10/31 03:37:15;;;;;;;49.20;34.10;;;;;;;7.18;100.00;99360.68;106312;1288;64013;-77
2022/10/31 03:39:45;;;;;;;52.10;36.40;;;;;;;7.16;100.00;99360.63;106293;1286;58889;-78
2022/10/31 03:42:15;;;;;;;53.60;37.30;;;;;;;7.14;100.00;99362.13;106305;1288;58789;-78
2022/10/31 03:44:50;;;;;;;53.70;38.70;;;;;;;7.13;100.00;99368.02;106292;1286;75954;-77
2022/10/31 03:47:17;;;;;;;52.60;37.80;;;;;;;7.08;100.00;99367.70;105927;1291;60024;-77
2022/10/31 03:49:44;;;;;;;49.20;34.20;;;;;;;7.05;100.00;99369.45;106323;1284;62705;-78
2022/10/31 03:52:19;;;;;;;49.40;36.70;;;;;;;7.02;100.00;99368.71;106318;1286;58920;-78
2022/10/31 03:55:12;;;;;;;50.80;37.30;;;;;;;6.99;100.00;99375.73;106300;1278;58747;-77
2022/10/31 03:57:45;;;;;;;50.50;37.80;;;;;;;6.96;100.00;99378.32;106310;1286;65892;-78
2022/10/31 04:00:14;;;;;;;52.40;38.10;;;;;;;6.94;100.00;99379.48;105971;1292;60859;-78
2022/10/31 04:02:48;;;;;;;48.40;35.70;;;;;;;6.92;100.00;99376.94;106297;1286;65076;-77
2022/10/31 04:05:17;;;;;;;57.50;39.90;;;;;;;6.89;100.00;99379.73;106331;1285;58931;-78
2022/10/31 04:07:50;;;;;;;58.10;40.20;;;;;;;6.87;100.00;99377.16;106325;1286;58711;-78
2022/10/31 04:10:18;;;;;;;55.90;39.60;;;;;;;6.86;100.00;99378.63;106111;1285;66223;-76
2022/10/31 04:12:52;;;;;;;64.00;41.90;;;;;;;6.85;100.00;99384.52;106303;1286;61070;-76
2022/10/31 04:15:20;;;;;;;53.70;39.30;;;;;;;6.83;100.00;99385.12;106292;1278;65202;-79
2022/10/31 04:17:50;;;;;;;54.60;39.10;;;;;;;6.79;100.00;99383.32;106293;1295;58914;-77
2022/10/31 04:20:17;;;;;;;;;;;;;;;6.79;100.00;99384.23;105911;1290;59250;-77
2022/10/31 04:22:44;;;;;;;50.90;35.90;;;;;;;6.76;100.00;99383.30;105948;1287;233676;-78
2022/10/31 04:25:11;;;;;;;49.30;37.00;;;;;;;6.73;100.00;99382.89;106299;1292;61027;-78
2022/10/31 04:27:38;;;;;;;65.50;40.90;;;;;;;6.72;100.00;99382.08;106303;1288;64085;-78
2022/10/31 04:30:05;;;;;;;84.60;46.00;;;;;;;6.71;100.00;99381.59;106101;1288;59068;-78
2022/10/31 04:32:31;;;;;;;83.10;46.00;;;;;;;6.69;100.00;99380.78;106311;1286;58992;-79
2022/10/31 04:34:58;;;;;;;58.50;39.40;;;;;;;6.69;100.00;99380.26;106298;1286;67019;-77
2022/10/31 04:37:24;;;;;;;69.90;43.90;;;;;;;6.67;100.00;99379.63;106308;1285;59934;-78
2022/10/31 04:39:51;;;;;;;79.40;46.50;;;;;;;6.67;100.00;99381.96;106300;1284;65192;-78
2022/10/31 04:42:17;;;;;;;62.00;43.00;;;;;;;6.68;100.00;99386.15;106288;1285;58911;-77
2022/10/31 04:44:44;;;;;;;57.50;39.70;;;;;;;6.67;100.00;99385.82;106302;1292;59092;-78
2022/10/31 04:47:10;;;;;;;56.00;39.20;;;;;;;6.67;100.00;99381.60;106305;1278;66988;-78
2022/10/31 04:49:37;;;;;;;55.10;35.70;;;;;;;6.64;100.00;99383.50;106288;1286;60971;-78
2022/10/31 04:52:03;;;;;;;46.90;35.00;;;;;;;6.60;100.00;99385.45;106028;1285;65055;-77
2022/10/31 04:54:30;;;;;;;48.30;35.40;;;;;;;6.56;100.00;99388.28;106306;1291;58954;-77
2022/10/31 04:56:57;;;;;;;43.80;32.20;;;;;;;6.53;100.00;99390.16;106312;1284;58770;-78
2022/10/31 04:59:23;;;;;;;48.10;35.70;;;;;;;6.49;100.00;99388.72;106294;1278;67046;-77
2022/10/31 05:01:50;;;;;;;48.40;36.40;;;;;;;6.45;100.00;99392.42;106306;1278;59721;-77
2022/10/31 05:04:16;;;;;;;50.40;36.70;;;;;;;6.40;100.00;99390.73;106307;1284;64542;-78
2022/10/31 05:06:43;;;;;;;49.40;35.80;;;;;;;6.34;100.00;99398.91;106295;1278;59023;-78
2022/10/31 05:09:10;;;;;;;48.00;36.30;;;;;;;6.31;100.00;99398.54;106043;1287;58883;-77
2022/10/31 05:11:36;;;;;;;52.40;37.80;;;;;;;6.28;100.00;99397.08;106325;1292;66019;-77
2022/10/31 05:14:03;;;;;;;58.70;39.60;;;;;;;6.26;100.00;99400.67;106140;1285;60007;-78
2022/10/31 05:16:30;;;;;;;56.40;37.70;;;;;;;6.25;100.00;99398.24;106304;1293;64755;-77
2022/10/31 05:18:56;;;;;;;66.00;34.90;;;;;;;6.25;100.00;99397.21;106279;1292;58894;-78
2022/10/31 05:21:23;;;;;;;61.80;37.90;;;;;;;6.22;100.00;99398.92;106322;1286;59717;-78
2022/10/31 05:23:49;;;;;;;59.70;39.10;;;;;;;6.19;100.00;99400.82;106328;1288;64705;-77
2022/10/31 05:26:16;;;;;;;73.30;42.40;;;;;;;6.16;100.00;99402.85;106333;1285;60769;-79
2022/10/31 05:28:42;;;;;;;90.70;44.60;;;;;;;6.17;100.00;99403.03;106310;1285;65014;-77
2022/10/31 05:31:09;;;;;;;60.30;42.30;;;;;;;6.18;100.00;99405.61;106301;1285;58811;-77
2022/10/31 05:33:36;;;;;;;60.90;42.40;;;;;;;6.18;100.00;99407.75;106044;1288;58912;-77
2022/10/31 05:36:03;;;;;;;55.80;42.30;;;;;;;6.15;100.00;99412.80;106320;1284;67195;-78
2022/10/31 05:38:29;;;;;;;69.60;39.90;;;;;;;6.13;100.00;99416.05;106342;1286;61170;-77
2022/10/31 05:41:00;;;;;;;52.00;38.00;;;;;;;6.14;100.00;99418.48;106297;1285;64975;-77
2022/10/31 05:43:28;;;;;;;49.20;36.10;;;;;;;6.15;100.00;99418.05;106085;1285;59360;-77
2022/10/31 05:45:56;;;;;;;50.40;38.00;;;;;;;6.17;100.00;99422.97;106317;1279;58829;-77
2022/10/31 05:48:23;;;;;;;79.90;39.90;;;;;;;6.19;100.00;99425.35;106336;1286;66073;-75
2022/10/31 05:50:49;;;;;;;50.50;38.70;;;;;;;6.22;100.00;99426.27;106315;1286;61017;-77
2022/10/31 05:53:16;;;;;;;50.60;37.30;;;;;;;6.25;100.00;99424.72;106293;1285;64269;-78
2022/10/31 05:55:43;;;;;;;50.80;37.50;;;;;;;6.27;100.00;99425.33;106334;1288;59104;-77
2022/10/31 05:58:10;;;;;;;75.90;51.10;;;;;;;6.30;100.00;99429.97;106342;1286;58932;-77
2022/10/31 06:00:38;;;;;;;86.10;54.40;;;;;;;6.36;100.00;99432.16;106298;1279;65929;-78
2022/10/31 06:03:07;;;;;;;65.70;46.60;;;;;;;6.44;100.00;99433.07;106305;1277;59947;-78
2022/10/31 06:05:34;;;;;;;60.40;44.30;;;;;;;6.54;100.00;99435.48;106311;1286;72072;-77
2022/10/31 06:08:01;;;;;;;55.50;40.50;;;;;;;6.59;100.00;99434.02;106302;1284;59101;-78
2022/10/31 06:10:28;;;;;;;50.20;38.70;;;;;;;6.63;100.00;99432.63;106040;1287;58951;-78
2022/10/31 06:12:55;;;;;;;50.30;37.00;;;;;;;6.67;100.00;99431.02;106099;1289;65987;-78
2022/10/31 06:15:22;;;;;;;64.50;44.90;;;;;;;6.70;100.00;99427.02;106323;1284;59956;-77
2022/10/31 06:17:57;;;;;;;75.20;52.30;;;;;;;6.73;100.00;99428.81;106279;1277;64133;-77
2022/10/31 06:20:24;;;;;;;80.70;53.20;;;;;;;6.77;100.00;99429.67;106293;1286;58953;-78
2022/10/31 06:22:51;;;;;;;85.20;58.20;;;;;;;6.84;100.00;99432.94;106030;1294;58957;-77
2022/10/31 06:25:17;;;;;;;81.50;56.50;;;;;;;6.91;100.00;99433.66;106305;1286;66934;-77
2022/10/31 06:27:44;;;;;;;77.00;55.70;;;;;;;6.99;100.00;99437.72;106016;1284;60800;-75
2022/10/31 06:30:11;;;;;;;98.20;69.30;;;;;;;7.08;100.00;99439.59;106290;1291;65027;-77
2022/10/31 06:32:37;;;;;;;89.90;63.00;;;;;;;7.20;100.00;99446.15;106315;1278;59223;-78
2022/10/31 06:35:04;;;;;;;83.30;59.90;;;;;;;7.31;100.00;99443.34;106330;1286;59009;-78
2022/10/31 06:37:31;;;;;;;86.00;62.80;;;;;;;7.42;100.00;99448.98;106090;1287;65677;-78
2022/10/31 06:39:57;;;;;;;82.30;61.50;;;;;;;7.54;100.00;99448.98;106314;1285;59940;-79
2022/10/31 06:42:24;;;;;;;76.70;57.70;;;;;;;7.64;100.00;99448.30;106312;1278;64031;-74
2022/10/31 06:44:50;;;;;;;76.60;57.80;;;;;;;7.74;100.00;99448.20;106331;1285;59243;-78
2022/10/31 06:47:17;;;;;;;80.60;59.00;;;;;;;7.84;100.00;99447.20;106303;1285;58960;-78
2022/10/31 06:49:43;;;;;;;71.30;58.20;;;;;;;7.94;100.00;99450.23;106302;1286;66984;-76
2022/10/31 06:52:10;;;;;;;70.90;56.70;;;;;;;8.05;100.00;99452.20;106116;1288;61002;-78
2022/10/31 06:54:37;;;;;;;70.70;56.90;;;;;;;8.16;100.00;99451.84;106287;1278;63899;-78
2022/10/31 06:57:03;;;;;;;70.40;57.40;;;;;;;8.27;100.00;99455.33;106313;1284;59016;-76
2022/10/31 06:59:30;;;;;;;75.40;57.00;;;;;;;8.40;100.00;99456.13;106299;1285;58885;-77
2022/10/31 07:01:58;;;;;;;71.70;56.10;;;;;;;8.52;100.00;99457.48;106309;1285;67020;-76
2022/10/31 07:04:24;;;;;;;64.00;52.50;;;;;;;8.64;100.00;99455.98;106312;1286;61269;-78
2022/10/31 07:06:52;;;;;;;62.60;50.80;;;;;;;8.76;100.00;99455.33;106274;1286;65009;-77
2022/10/31 07:09:19;;;;;;;62.50;48.10;;;;;;;8.88;100.00;99450.64;106235;1289;58883;-78
2022/10/31 07:11:46;;;;;;;55.50;46.20;;;;;;;9.00;100.00;99453.22;106296;1285;58882;-77
2022/10/31 07:14:12;;;;;;;54.00;43.90;;;;;;;9.12;100.00;99452.77;106007;1292;67010;-76
2022/10/31 07:16:39;;;;;;;42.80;37.00;;;;;;;9.24;100.00;99453.52;106320;1285;60001;-78
2022/10/31 07:19:05;;;;;;;42.20;34.00;;;;;;;9.35;100.00;99456.98;106294;1269;64860;-77
2022/10/31 07:21:32;;;;;;;36.90;31.90;;;;;;;9.47;100.00;99460.95;106294;1285;58898;-78
2022/10/31 07:23:59;;;;;;;34.10;29.70;;;;;;;9.59;100.00;99460.13;106297;1284;58919;-76
2022/10/31 07:26:27;;;;;;;32.90;28.40;;;;;;;9.70;100.00;99456.63;106299;1285;66108;-76
2022/10/31 07:28:54;;;;;;;51.60;30.70;;;;;;;9.82;100.00;99457.02;106333;1285;60960;-77
2022/10/31 07:31:20;;;;;;;45.10;28.90;;;;;;;9.95;100.00;99459.52;106292;1285;64843;-78
2022/10/31 07:33:47;;;;;;;31.30;26.20;;;;;;;10.05;100.00;99460.50;106286;1285;58870;-77
2022/10/31 07:36:14;;;;;;;34.00;26.60;;;;;;;10.16;100.00;99459.73;106281;1278;58851;-78
2022/10/31 07:38:41;;;;;;;34.90;25.90;;;;;;;10.26;100.00;99460.55;106303;1278;66019;-78
2022/10/31 07:41:08;;;;;;;31.20;25.20;;;;;;;10.38;100.00;99460.08;106032;1287;61211;-77
2022/10/31 07:43:35;;;;;;;28.80;22.90;;;;;;;10.48;100.00;99464.61;106275;1286;63999;-77
2022/10/31 07:46:01;;;;;;;26.70;21.40;;;;;;;10.59;100.00;99467.20;106304;1286;58905;-78
2022/10/31 07:48:28;;;;;;;27.90;20.00;;;;;;;10.68;100.00;99468.27;106028;1291;58894;-77
2022/10/31 07:50:54;;;;;;;25.80;19.60;;;;;;;10.76;100.00;99474.52;106290;1285;67052;-77
2022/10/31 07:53:21;;;;;;;26.00;19.20;;;;;;;10.86;100.00;99478.88;106304;1292;60074;-78
2022/10/31 07:55:47;;;;;;;21.20;18.80;;;;;;;10.95;100.00;99476.06;106296;1285;58942;-76
2022/10/31 07:58:16;;;;;;;28.20;21.00;;;;;;;11.04;100.00;99469.29;106276;1286;58979;-78
2022/10/31 08:00:44;;;;;;;27.60;19.90;;;;;;;11.13;100.00;99467.09;106307;1293;58792;-78
2022/10/31 08:03:16;;;;;;;26.10;19.70;;;;;;;11.25;100.00;99468.38;106317;1278;66083;-79
2022/10/31 08:05:45;;;;;;;22.00;17.30;;;;;;;11.34;100.00;99468.86;106306;1277;60757;-78
2022/10/31 08:08:13;;;;;;;22.30;17.60;;;;;;;11.43;100.00;99468.82;106296;1286;64278;-79
2022/10/31 08:10:40;;;;;;;27.30;17.70;;;;;;;11.51;100.00;99465.66;106076;1289;58887;-78
2022/10/31 08:13:12;;;;;;;22.00;16.90;;;;;;;11.59;100.00;99465.34;106274;1280;58892;-77
2022/10/31 08:15:41;;;;;;;21.60;17.10;;;;;;;11.68;100.00;99467.40;106117;1288;67011;-78
2022/10/31 08:18:13;;;;;;;21.70;18.70;;;;;;;11.79;100.00;99470.61;106239;1286;61472;-76
2022/10/31 08:20:40;;;;;;;19.20;16.20;;;;;;;11.89;100.00;99467.52;106211;1288;65062;-78
2022/10/31 08:23:10;;;;;;;20.70;15.20;;;;;;;11.98;100.00;99466.37;106238;1288;58810;-78
2022/10/31 08:25:36;;;;;;;22.90;16.20;;;;;;;12.09;100.00;99463.23;106222;1288;58867;-78
2022/10/31 08:28:04;;;;;;;21.80;14.40;;;;;;;12.19;100.00;99462.21;106271;1279;66992;-77
2022/10/31 08:30:34;;;;;;;17.90;14.40;;;;;;;12.27;100.00;99462.33;106253;1287;60069;-77
2022/10/31 08:33:05;;;;;;;;;;;;;;;12.38;100.00;99462.00;106270;1287;65030;-76
2022/10/31 08:35:33;;;;;;;15.70;13.10;;;;;;;12.48;100.00;99465.23;106264;1288;58886;-77
2022/10/31 08:38:00;;;;;;;16.50;12.50;;;;;;;12.58;100.00;99463.28;105901;1291;58961;-78
2022/10/31 08:40:29;;;;;;;16.20;13.10;;;;;;;12.68;100.00;99465.64;106237;1278;65973;-78
2022/10/31 08:43:00;;;;;;;13.30;11.50;;;;;;;12.78;100.00;99465.50;106227;1279;60996;-78
2022/10/31 08:45:29;;;;;;;19.30;13.20;;;;;;;12.88;100.00;99462.48;106024;1291;63870;-76
2022/10/31 08:48:00;;;;;;;15.70;11.80;;;;;;;12.98;100.00;99457.56;106217;1280;58903;-78
2022/10/31 08:50:29;;;;;;;14.10;10.60;;;;;;;13.08;100.00;99456.16;106247;1288;58989;-76
2022/10/31 08:53:07;;;;;;;14.00;11.30;;;;;;;13.19;100.00;99456.27;106246;1287;66037;-78
2022/10/31 08:55:35;;;;;;;14.60;10.50;;;;;;;13.31;100.00;99458.09;105998;1284;60779;-77
2022/10/31 08:58:04;;;;;;;15.40;10.40;;;;;;;13.44;100.00;99454.54;106234;1288;64162;-78
2022/10/31 09:00:31;;;;;;;13.70;9.80;;;;;;;13.56;100.00;99452.22;106252;1293;58904;-78
2022/10/31 09:02:59;;;;;;;13.30;10.10;;;;;;;13.68;100.00;99452.65;106269;1287;59024;-77
2022/10/31 09:05:27;;;;;;;12.10;8.90;;;;;;;13.77;100.00;99456.58;106111;1287;66023;-79
2022/10/31 09:07:58;;;;;;;12.10;9.50;;;;;;;13.87;100.00;99460.13;106020;1287;61167;-78
2022/10/31 09:10:26;;;;;;;14.10;9.00;;;;;;;13.97;100.00;99459.80;106282;1286;65228;-76
2022/10/31 09:13:03;;;;;;;12.50;9.00;;;;;;;14.06;100.00;99456.62;106277;1288;59084;-78
2022/10/31 09:15:30;;;;;;;10.40;8.40;;;;;;;14.14;100.00;99454.21;106094;1281;59112;-78
2022/10/31 09:17:56;;;;;;;11.20;9.10;;;;;;;14.24;100.00;99459.58;106305;1278;67003;-77
2022/10/31 09:20:23;;;;;;;10.30;8.30;;;;;;;14.36;100.00;99456.20;106322;1284;59941;-78
2022/10/31 09:22:58;;;;;;;13.70;7.60;;;;;;;14.48;100.00;99454.77;106321;1285;63769;-78
2022/10/31 09:25:25;;;;;;;14.60;7.30;;;;;;;14.58;100.00;99459.92;106362;1285;58856;-78
2022/10/31 09:27:58;;;;;;;10.10;7.40;;;;;;;14.68;100.00;99457.57;106147;1281;59231;-79
2022/10/31 09:30:27;;;;;;;10.60;7.50;;;;;;;14.77;100.00;99462.42;106331;1285;66737;-79
2022/10/31 09:33:10;;;;;;;11.90;7.80;;;;;;;14.87;100.00;99463.95;106293;1286;59955;-77
2022/10/31 09:35:37;;;;;;;12.60;7.70;;;;;;;14.98;100.00;99462.55;106325;1278;65410;-77
2022/10/31 09:38:08;;;;;;;9.80;7.80;;;;;;;15.06;100.00;99462.97;106032;1291;58906;-77
2022/10/31 09:40:36;;;;;;;12.40;8.30;;;;;;;15.16;100.00;99463.84;106310;1285;59698;-77
2022/10/31 09:43:13;;;;;;;11.60;7.10;;;;;;;15.27;100.00;99462.60;106292;1278;67171;-77
2022/10/31 09:45:57;;;;;;;10.40;7.80;;;;;;;15.41;100.00;99462.08;106292;1285;59789;-78
2022/10/31 09:48:29;;;;;;;12.50;8.50;;;;;;;15.50;100.00;99463.83;106291;1285;65007;-77
2022/10/31 09:51:03;;;;;;;14.70;8.20;;;;;;;15.61;100.00;99463.14;106306;1285;59142;-76
2022/10/31 09:53:37;;;;;;;12.20;7.60;;;;;;;15.71;100.00;99461.61;106303;1285;59097;-77
2022/10/31 09:56:09;;;;;;;13.50;8.70;;;;;;;15.83;100.00;99459.81;106325;1279;65922;-78
2022/10/31 09:58:42;;;;;;;11.40;7.90;;;;;;;15.91;100.00;99455.52;106302;1278;59888;-78
2022/10/31 10:01:47;;;;;;;10.60;7.30;;;;;;;16.02;100.00;99458.27;106287;1278;73532;-79
2022/10/31 10:04:39;;;;;;;11.80;8.60;;;;;;;16.16;100.00;99453.34;106287;1272;58942;-77
2022/10/31 10:07:30;;;;;;;11.90;7.20;;;;;;;16.29;100.00;99455.05;106322;1288;59183;-78
2022/10/31 10:09:58;;;;;;;10.40;7.50;;;;;;;16.41;100.00;99453.77;106288;1278;65993;-78
2022/10/31 10:12:59;;;;;;;11.00;8.20;;;;;;;16.50;100.00;99455.17;106312;1271;61069;-77
2022/10/31 10:15:56;;;;;;;9.00;6.70;;;;;;;16.57;100.00;99455.06;106293;1279;64062;-77
2022/10/31 10:18:45;;;;;;;10.90;7.40;;;;;;;16.71;100.00;99451.77;106031;1283;59154;-78
2022/10/31 10:21:12;;;;;;;11.00;6.80;;;;;;;16.82;100.00;99452.95;106311;1285;59377;-77
2022/10/31 10:24:09;;;;;;;16.40;6.90;;;;;;;16.90;100.00;99450.48;106297;1285;59782;-79
2022/10/31 10:26:40;;;;;;;16.20;6.90;;;;;;;16.99;100.00;99447.25;106322;1281;59723;-79
2022/10/31 10:29:34;;;;;;;11.60;6.80;;;;;;;17.08;100.00;99445.18;106304;1292;65060;-78
2022/10/31 10:32:09;;;;;;;8.50;6.20;;;;;;;17.19;100.00;99444.73;106297;1285;58771;-78
2022/10/31 10:34:45;;;;;;;8.50;6.50;;;;;;;17.28;100.00;99442.71;106317;1279;58863;-77
2022/10/31 10:37:37;;;;;;;12.70;8.20;;;;;;;17.39;100.00;99442.53;106103;1288;66130;-77
2022/10/31 10:40:24;;;;;;;10.80;6.70;;;;;;;17.52;100.00;99441.83;106287;1285;60157;-78
2022/10/31 10:43:21;;;;;;;10.50;6.70;;;;;;;17.61;100.00;99445.03;106307;1278;64002;-78
2022/10/31 10:49:18;;;;;;;11.30;7.00;;;;;;;17.79;100.00;99441.98;106287;1285;58910;-78
2022/10/31 10:52:07;;;;;;;11.70;6.80;;;;;;;17.88;100.00;99441.20;106308;1278;67081;-77
2022/10/31 10:54:48;;;;;;;8.20;6.50;;;;;;;17.95;100.00;99438.91;105759;1292;61011;-80
2022/10/31 10:57:32;;;;;;;9.00;6.40;;;;;;;18.02;100.00;99434.56;105748;1294;65119;-76
2022/10/31 11:00:01;;;;;;;10.20;6.20;;;;;;;18.09;100.00;99435.57;105759;1294;58925;-77
2022/10/31 11:02:32;;;;;;;10.70;7.00;;;;;;;18.16;100.00;99434.76;105766;1294;58938;-77
2022/10/31 11:05:01;;;;;;;11.50;7.00;;;;;;;18.21;100.00;99432.52;105628;1295;64710;-80
2022/10/31 11:07:39;;;;;;;12.70;7.70;;;;;;;18.27;100.00;99434.42;105753;1286;58940;-77
2022/10/31 11:10:16;;;;;;;11.50;7.30;;;;;;;18.32;100.00;99431.48;105688;1294;65102;-78
2022/10/31 11:12:57;;;;;;;10.90;7.00;;;;;;;18.37;100.00;99430.98;105229;1301;58893;-78
2022/10/31 11:15:26;;;;;;;13.30;6.90;;;;;;;18.42;100.00;99427.13;105757;1292;58996;-78
2022/10/31 11:17:55;;;;;;;14.80;7.90;;;;;;;18.46;100.00;99423.34;105753;1290;66051;-78
2022/10/31 11:20:34;;;;;;;10.70;7.00;;;;;;;18.50;100.00;99421.33;105756;1290;59931;-79
2022/10/31 11:23:20;;;;;;;10.70;7.80;;;;;;;18.56;100.00;99417.52;105739;1294;62665;-78
2022/10/31 11:26:18;;;;;;;14.40;7.00;;;;;;;18.61;100.00;99413.23;105741;1292;59005;-79
2022/10/31 11:28:56;;;;;;;9.60;7.60;;;;;;;18.66;100.00;99412.98;105732;1294;59929;-77
2022/10/31 11:31:24;;;;;;;13.40;7.00;;;;;;;18.68;100.00;99413.72;105860;1293;65882;-78